Tessalit, Mali
Current Conditions -  °F | °C
As of 8:30 PM on Friday 28 Nov 2014 (Local Time) from DAAT Reporting Station
Clear Clear  
Wind Chill: 57°   Ceiling: Unl
Heat Index: 57°   Visibility: 4mi
Dew Point: 27°   Wind: 6mph
Humidity: 31%   Direction: 160°SSE
Pressure: 30.15"   Gusts: NA
Location:  20.28°N, 0.98°E
Report Text: DAAT 282030Z 16005KT 7000 NSC 14/M03 Q1021
Loading
Personal Weather Stations






























Interactive Weather Map New forecast layout! Learn more

10-Day Weather Forecast

Advertisements
Track Severe Weather on mobile